sensor_id;sensor_type;location;lat;lon;timestamp;pressure;altitude;pressure_sealevel;temperature;humidity
72116;BME280;59991;52.140;5.428;2023-06-26T00:00:08;101195.44;;;23.29;64.55
72116;BME280;59991;52.140;5.428;2023-06-26T00:00:39;101194.69;;;23.28;65.38
72116;BME280;59991;52.140;5.428;2023-06-26T00:01:11;101194.69;;;23.28;65.41
72116;BME280;59991;52.140;5.428;2023-06-26T00:01:43;101191.91;;;23.28;65.11
72116;BME280;59991;52.140;5.428;2023-06-26T00:02:14;101198.69;;;23.27;64.76
72116;BME280;59991;52.140;5.428;2023-06-26T00:02:46;101189.59;;;23.27;65.40
72116;BME280;59991;52.140;5.428;2023-06-26T00:03:17;101190.03;;;23.25;65.08
72116;BME280;59991;52.140;5.428;2023-06-26T00:03:49;101196.38;;;23.26;65.28
72116;BME280;59991;52.140;5.428;2023-06-26T00:04:20;101196.81;;;23.24;65.73
72116;BME280;59991;52.140;5.428;2023-06-26T00:04:52;101187.72;;;23.24;65.35
72116;BME280;59991;52.140;5.428;2023-06-26T00:05:24;101191.41;;;23.21;65.21
72116;BME280;59991;52.140;5.428;2023-06-26T00:05:56;101182.72;;;23.19;64.94
72116;BME280;59991;52.140;5.428;2023-06-26T00:06:32;101181.94;;;23.18;65.24
72116;BME280;59991;52.140;5.428;2023-06-26T00:07:06;101181.94;;;23.18;65.26
72116;BME280;59991;52.140;5.428;2023-06-26T00:07:37;101187.97;;;23.17;65.16
72116;BME280;59991;52.140;5.428;2023-06-26T00:08:09;101178.84;;;23.16;65.65
72116;BME280;59991;52.140;5.428;2023-06-26T00:08:40;101185.63;;;23.15;66.19
72116;BME280;59991;52.140;5.428;2023-06-26T00:09:12;101176.19;;;23.13;65.78
72116;BME280;59991;52.140;5.428;2023-06-26T00:09:43;101177.88;;;23.10;65.74
72116;BME280;59991;52.140;5.428;2023-06-26T00:10:15;101177.88;;;23.10;65.62
72116;BME280;59991;52.140;5.428;2023-06-26T00:10:46;101180.66;;;23.10;66.01
72116;BME280;59991;52.140;5.428;2023-06-26T00:11:19;101178.34;;;23.08;65.71
72116;BME280;59991;52.140;5.428;2023-06-26T00:11:50;101179.59;;;23.07;65.44
72116;BME280;59991;52.140;5.428;2023-06-26T00:12:22;101182.81;;;23.06;65.54
72116;BME280;59991;52.140;5.428;2023-06-26T00:12:54;101184.38;;;23.07;65.30
72116;BME280;59991;52.140;5.428;2023-06-26T00:13:25;101182.81;;;23.06;65.71
72116;BME280;59991;52.140;5.428;2023-06-26T00:13:57;101183.28;;;23.04;65.73
72116;BME280;59991;52.140;5.428;2023-06-26T00:14:29;101186.84;;;23.05;66.30
72116;BME280;59991;52.140;5.428;2023-06-26T00:15:01;101183.28;;;23.04;65.85
72116;BME280;59991;52.140;5.428;2023-06-26T00:15:32;101188.06;;;23.04;65.74
72116;BME280;59991;52.140;5.428;2023-06-26T00:16:04;101193.63;;;23.04;66.48
72116;BME280;59991;52.140;5.428;2023-06-26T00:16:36;101186.50;;;23.03;65.52
72116;BME280;59991;52.140;5.428;2023-06-26T00:17:07;101192.06;;;23.03;66.30
72116;BME280;59991;52.140;5.428;2023-06-26T00:17:38;101182.63;;;23.00;66.28
72116;BME280;59991;52.140;5.428;2023-06-26T00:18:10;101186.19;;;23.01;66.04
72116;BME280;59991;52.140;5.428;2023-06-26T00:18:42;101187.41;;;23.00;66.58
72116;BME280;59991;52.140;5.428;2023-06-26T00:19:13;101187.41;;;23.00;66.23
72116;BME280;59991;52.140;5.428;2023-06-26T00:19:45;101183.53;;;22.97;66.33
72116;BME280;59991;52.140;5.428;2023-06-26T00:20:16;101189.09;;;22.97;66.93
72116;BME280;59991;52.140;5.428;2023-06-26T00:20:50;101188.31;;;22.97;66.29
72116;BME280;59991;52.140;5.428;2023-06-26T00:21:21;101190.31;;;22.96;66.82
72116;BME280;59991;52.140;5.428;2023-06-26T00:21:52;101187.22;;;22.94;66.02
72116;BME280;59991;52.140;5.428;2023-06-26T00:22:24;101189.22;;;22.94;66.26
72116;BME280;59991;52.140;5.428;2023-06-26T00:22:56;101187.66;;;22.93;66.44
72116;BME280;59991;52.140;5.428;2023-06-26T00:23:30;101186.88;;;22.92;66.60
72116;BME280;59991;52.140;5.428;2023-06-26T00:24:10;101188.13;;;22.91;66.27
72116;BME280;59991;52.140;5.428;2023-06-26T00:24:42;101187.81;;;22.89;66.42
72116;BME280;59991;52.140;5.428;2023-06-26T00:25:13;101190.59;;;22.89;66.53
72116;BME280;59991;52.140;5.428;2023-06-26T00:25:45;101185.50;;;22.88;66.43
72116;BME280;59991;52.140;5.428;2023-06-26T00:26:16;101185.50;;;22.88;66.19
72116;BME280;59991;52.140;5.428;2023-06-26T00:26:48;101188.72;;;22.86;66.42
72116;BME280;59991;52.140;5.428;2023-06-26T00:27:20;101187.94;;;22.86;66.82
72116;BME280;59991;52.140;5.428;2023-06-26T00:27:51;101183.63;;;22.85;66.83
72116;BME280;59991;52.140;5.428;2023-06-26T00:28:23;101185.63;;;22.84;66.60
72116;BME280;59991;52.140;5.428;2023-06-26T00:28:54;101182.50;;;22.82;66.97
72116;BME280;59991;52.140;5.428;2023-06-26T00:29:26;101184.50;;;22.82;66.52
72116;BME280;59991;52.140;5.428;2023-06-26T00:29:57;101181.75;;;22.82;66.75
72116;BME280;59991;52.140;5.428;2023-06-26T00:30:28;101186.97;;;22.80;66.83
72116;BME280;59991;52.140;5.428;2023-06-26T00:31:00;101182.97;;;22.81;66.61
72116;BME280;59991;52.140;5.428;2023-06-26T00:31:32;101178.31;;;22.78;67.15
72116;BME280;59991;52.140;5.428;2023-06-26T00:32:03;101187.84;;;22.77;66.74
72116;BME280;59991;52.140;5.428;2023-06-26T00:32:35;101181.50;;;22.76;67.15
72116;BME280;59991;52.140;5.428;2023-06-26T00:33:08;101173.63;;;22.74;67.00
72116;BME280;59991;52.140;5.428;2023-06-26T00:33:39;101180.72;;;22.75;66.63
72116;BME280;59991;52.140;5.428;2023-06-26T00:34:10;101170.84;;;22.74;66.91
72116;BME280;59991;52.140;5.428;2023-06-26T00:34:43;101168.50;;;22.73;66.62
72116;BME280;59991;52.140;5.428;2023-06-26T00:35:14;101170.50;;;22.72;67.06
72116;BME280;59991;52.140;5.428;2023-06-26T00:35:46;101164.66;;;22.70;67.41
72116;BME280;59991;52.140;5.428;2023-06-26T00:36:17;101159.09;;;22.70;67.33
72116;BME280;59991;52.140;5.428;2023-06-26T00:36:49;101174.66;;;22.68;67.44
72116;BME280;59991;52.140;5.428;2023-06-26T00:37:20;101172.34;;;22.66;66.44
72116;BME280;59991;52.140;5.428;2023-06-26T00:37:53;101161.22;;;22.66;66.85
72116;BME280;59991;52.140;5.428;2023-06-26T00:38:24;101152.56;;;22.64;66.85
72116;BME280;59991;52.140;5.428;2023-06-26T00:38:56;101158.13;;;22.64;67.41
72116;BME280;59991;52.140;5.428;2023-06-26T00:39:27;101166.47;;;22.64;66.84
72116;BME280;59991;52.140;5.428;2023-06-26T00:39:59;101166.91;;;22.63;67.39
72116;BME280;59991;52.140;5.428;2023-06-26T00:40:30;101160.56;;;22.62;67.09
72116;BME280;59991;52.140;5.428;2023-06-26T00:41:02;101162.25;;;22.60;67.18
72116;BME280;59991;52.140;5.428;2023-06-26T00:41:33;101163.03;;;22.60;67.38
72116;BME280;59991;52.140;5.428;2023-06-26T00:42:05;101165.03;;;22.60;67.28
72116;BME280;59991;52.140;5.428;2023-06-26T00:42:38;101165.47;;;22.58;67.17
72116;BME280;59991;52.140;5.428;2023-06-26T00:43:09;101160.69;;;22.59;66.89
72116;BME280;59991;52.140;5.428;2023-06-26T00:43:41;101159.91;;;22.58;66.86
72116;BME280;59991;52.140;5.428;2023-06-26T00:44:12;101164.69;;;22.58;67.01
72116;BME280;59991;52.140;5.428;2023-06-26T00:44:44;101154.81;;;22.57;67.12
72116;BME280;59991;52.140;5.428;2023-06-26T00:45:15;101156.81;;;22.56;67.07
72116;BME280;59991;52.140;5.428;2023-06-26T00:45:57;101162.38;;;22.56;66.70
72116;BME280;59991;52.140;5.428;2023-06-26T00:46:28;101156.16;;;22.52;66.88
72116;BME280;59991;52.140;5.428;2023-06-26T00:47:00;101158.94;;;22.52;66.63
72116;BME280;59991;52.140;5.428;2023-06-26T00:47:32;101163.28;;;22.53;66.70
72116;BME280;59991;52.140;5.428;2023-06-26T00:48:04;101163.72;;;22.52;66.92
72116;BME280;59991;52.140;5.428;2023-06-26T00:48:37;101153.38;;;22.52;66.47
72116;BME280;59991;52.140;5.428;2023-06-26T00:49:09;101162.19;;;22.51;66.64
72116;BME280;59991;52.140;5.428;2023-06-26T00:49:41;101158.63;;;22.50;66.66
72116;BME280;59991;52.140;5.428;2023-06-26T00:50:12;101162.66;;;22.49;67.02
72116;BME280;59991;52.140;5.428;2023-06-26T00:50:45;101165.41;;;22.49;67.50
72116;BME280;59991;52.140;5.428;2023-06-26T00:51:16;101163.88;;;22.48;67.19
72116;BME280;59991;52.140;5.428;2023-06-26T00:51:48;101165.88;;;22.48;67.07
72116;BME280;59991;52.140;5.428;2023-06-26T00:52:20;101156.75;;;22.47;67.71
72116;BME280;59991;52.140;5.428;2023-06-26T00:52:51;101163.53;;;22.46;67.32
72116;BME280;59991;52.140;5.428;2023-06-26T00:53:23;101159.22;;;22.45;67.50
72116;BME280;59991;52.140;5.428;2023-06-26T00:53:54;101154.88;;;22.44;66.79
72116;BME280;59991;52.140;5.428;2023-06-26T00:54:26;101153.66;;;22.45;67.05
72116;BME280;59991;52.140;5.428;2023-06-26T00:54:58;101161.22;;;22.45;67.50
72116;BME280;59991;52.140;5.428;2023-06-26T00:55:29;101161.66;;;22.43;67.40
72116;BME280;59991;52.140;5.428;2023-06-26T00:56:02;101167.66;;;22.42;66.86
72116;BME280;59991;52.140;5.428;2023-06-26T00:56:34;101163.66;;;22.43;67.46
72116;BME280;59991;52.140;5.428;2023-06-26T00:57:06;101163.66;;;22.43;66.89
72116;BME280;59991;52.140;5.428;2023-06-26T00:57:37;101155.31;;;22.43;67.81
72116;BME280;59991;52.140;5.428;2023-06-26T00:58:09;101166.44;;;22.43;67.09
72116;BME280;59991;52.140;5.428;2023-06-26T00:58:41;101162.09;;;22.42;67.17
72116;BME280;59991;52.140;5.428;2023-06-26T00:59:13;101165.34;;;22.40;67.07
72116;BME280;59991;52.140;5.428;2023-06-26T00:59:45;101160.56;;;22.40;67.00
72116;BME280;59991;52.140;5.428;2023-06-26T01:00:17;101169.34;;;22.39;67.28
72116;BME280;59991;52.140;5.428;2023-06-26T01:00:50;101160.69;;;22.37;67.21
72116;BME280;59991;52.140;5.428;2023-06-26T01:01:21;101162.69;;;22.36;67.05
72116;BME280;59991;52.140;5.428;2023-06-26T01:01:56;101161.13;;;22.35;67.43
72116;BME280;59991;52.140;5.428;2023-06-26T01:02:28;101171.47;;;22.35;67.55
72116;BME280;59991;52.140;5.428;2023-06-26T01:03:05;101168.34;;;22.33;67.08
72116;BME280;59991;52.140;5.428;2023-06-26T01:03:36;101167.56;;;22.32;67.29
72116;BME280;59991;52.140;5.428;2023-06-26T01:04:11;101169.59;;;22.32;67.23
72116;BME280;59991;52.140;5.428;2023-06-26T01:04:49;101168.06;;;22.31;67.17
72116;BME280;59991;52.140;5.428;2023-06-26T01:05:22;101164.94;;;22.29;67.50
72116;BME280;59991;52.140;5.428;2023-06-26T01:05:56;101166.16;;;22.28;67.54
72116;BME280;59991;52.140;5.428;2023-06-26T01:06:30;101166.16;;;22.28;67.24
72116;BME280;59991;52.140;5.428;2023-06-26T01:07:06;101162.63;;;22.27;67.56
72116;BME280;59991;52.140;5.428;2023-06-26T01:07:39;101161.06;;;22.26;67.30
72116;BME280;59991;52.140;5.428;2023-06-26T01:08:12;101163.06;;;22.26;67.11
72116;BME280;59991;52.140;5.428;2023-06-26T01:08:45;101169.84;;;22.25;67.63
72116;BME280;59991;52.140;5.428;2023-06-26T01:09:20;101176.19;;;22.25;67.33
72116;BME280;59991;52.140;5.428;2023-06-26T01:09:52;101168.28;;;22.24;67.92
72116;BME280;59991;52.140;5.428;2023-06-26T01:10:23;101170.63;;;22.25;67.71
72116;BME280;59991;52.140;5.428;2023-06-26T01:10:55;101169.50;;;22.23;67.93
72116;BME280;59991;52.140;5.428;2023-06-26T01:11:27;101172.28;;;22.23;67.36
72116;BME280;59991;52.140;5.428;2023-06-26T01:11:58;101166.41;;;22.21;67.97
72116;BME280;59991;52.140;5.428;2023-06-26T01:12:34;101173.50;;;22.22;67.28
72116;BME280;59991;52.140;5.428;2023-06-26T01:13:06;101174.28;;;22.22;67.54
72116;BME280;59991;52.140;5.428;2023-06-26T01:13:38;101177.84;;;22.23;67.73
72116;BME280;59991;52.140;5.428;2023-06-26T01:14:10;101170.75;;;22.22;67.04
72116;BME280;59991;52.140;5.428;2023-06-26T01:14:42;101180.63;;;22.23;67.78
72116;BME280;59991;52.140;5.428;2023-06-26T01:15:13;101180.28;;;22.21;67.64
72116;BME280;59991;52.140;5.428;2023-06-26T01:15:46;101176.28;;;22.22;67.99
72116;BME280;59991;52.140;5.428;2023-06-26T01:16:18;101170.75;;;22.22;68.02
72116;BME280;59991;52.140;5.428;2023-06-26T01:16:51;101181.06;;;22.21;67.77
72116;BME280;59991;52.140;5.428;2023-06-26T01:17:23;101178.75;;;22.20;67.50
72116;BME280;59991;52.140;5.428;2023-06-26T01:17:57;101177.97;;;22.19;68.05
72116;BME280;59991;52.140;5.428;2023-06-26T01:18:35;101178.75;;;22.20;67.14
72116;BME280;59991;52.140;5.428;2023-06-26T01:19:19;101179.50;;;22.20;67.61
72116;BME280;59991;52.140;5.428;2023-06-26T01:20:00;101179.50;;;22.20;67.65
72116;BME280;59991;52.140;5.428;2023-06-26T01:20:37;101184.28;;;22.20;67.90
72116;BME280;59991;52.140;5.428;2023-06-26T01:21:13;101182.41;;;22.17;67.95
72116;BME280;59991;52.140;5.428;2023-06-26T01:21:45;101183.63;;;22.16;67.38
72116;BME280;59991;52.140;5.428;2023-06-26T01:22:37;101180.41;;;22.17;67.91
72116;BME280;59991;52.140;5.428;2023-06-26T01:23:24;101181.63;;;22.16;67.61
72116;BME280;59991;52.140;5.428;2023-06-26T01:24:17;101179.75;;;22.13;68.19
72116;BME280;59991;52.140;5.428;2023-06-26T01:26:14;101183.91;;;22.09;68.42
72116;BME280;59991;52.140;5.428;2023-06-26T01:26:50;101179.69;;;22.04;68.51
72116;BME280;59991;52.140;5.428;2023-06-26T01:27:22;101187.22;;;22.03;68.51
72116;BME280;59991;52.140;5.428;2023-06-26T01:27:56;101186.00;;;22.04;68.02
72116;BME280;59991;52.140;5.428;2023-06-26T01:28:28;101187.56;;;22.05;67.97
72116;BME280;59991;52.140;5.428;2023-06-26T01:29:01;101189.13;;;22.07;67.69
72116;BME280;59991;52.140;5.428;2023-06-26T01:29:33;101190.66;;;22.08;67.51
72116;BME280;59991;52.140;5.428;2023-06-26T01:30:07;101190.22;;;22.09;67.86
72116;BME280;59991;52.140;5.428;2023-06-26T01:30:43;101200.88;;;22.11;67.63
72116;BME280;59991;52.140;5.428;2023-06-26T01:31:16;101206.44;;;22.11;68.21
72116;BME280;59991;52.140;5.428;2023-06-26T01:31:49;101204.44;;;22.11;67.62
72116;BME280;59991;52.140;5.428;2023-06-26T01:32:22;101205.66;;;22.10;67.73
72116;BME280;59991;52.140;5.428;2023-06-26T01:32:54;101203.66;;;22.11;67.63
72116;BME280;59991;52.140;5.428;2023-06-26T01:33:26;101202.88;;;22.10;68.40
72116;BME280;59991;52.140;5.428;2023-06-26T01:34:01;101203.22;;;22.12;67.91
72116;BME280;59991;52.140;5.428;2023-06-26T01:34:32;101206.00;;;22.12;68.08
72116;BME280;59991;52.140;5.428;2023-06-26T01:35:06;101206.78;;;22.13;68.21
72116;BME280;59991;52.140;5.428;2023-06-26T01:35:39;101207.53;;;22.13;68.11
72116;BME280;59991;52.140;5.428;2023-06-26T01:36:11;101205.53;;;22.14;67.60
72116;BME280;59991;52.140;5.428;2023-06-26T01:36:43;101212.31;;;22.13;68.37
72116;BME280;59991;52.140;5.428;2023-06-26T01:37:15;101202.75;;;22.14;67.95
72116;BME280;59991;52.140;5.428;2023-06-26T01:37:46;101205.53;;;22.14;68.07
72116;BME280;59991;52.140;5.428;2023-06-26T01:38:19;101202.75;;;22.14;67.50
72116;BME280;59991;52.140;5.428;2023-06-26T01:38:51;101199.97;;;22.14;67.99
72116;BME280;59991;52.140;5.428;2023-06-26T01:39:23;101211.84;;;22.14;68.11
72116;BME280;59991;52.140;5.428;2023-06-26T01:39:54;101211.06;;;22.14;68.00
72116;BME280;59991;52.140;5.428;2023-06-26T01:40:26;101211.84;;;22.14;68.27
72116;BME280;59991;52.140;5.428;2023-06-26T01:40:58;101211.56;;;22.12;67.71
72116;BME280;59991;52.140;5.428;2023-06-26T01:41:30;101213.06;;;22.13;68.21
72116;BME280;59991;52.140;5.428;2023-06-26T01:42:02;101212.31;;;22.13;67.32
72116;BME280;59991;52.140;5.428;2023-06-26T01:42:34;101213.84;;;22.14;67.79
72116;BME280;59991;52.140;5.428;2023-06-26T01:43:09;101213.56;;;22.12;67.94
72116;BME280;59991;52.140;5.428;2023-06-26T01:44:25;101214.31;;;22.12;67.47
72116;BME280;59991;52.140;5.428;2023-06-26T01:45:02;101216.31;;;22.12;67.63
72116;BME280;59991;52.140;5.428;2023-06-26T01:45:36;101212.78;;;22.11;67.78
72116;BME280;59991;52.140;5.428;2023-06-26T01:46:23;101211.22;;;22.10;67.38
72116;BME280;59991;52.140;5.428;2023-06-26T01:47:04;101214.00;;;22.10;67.69
72116;BME280;59991;52.140;5.428;2023-06-26T01:47:37;101215.56;;;22.11;67.72
72116;BME280;59991;52.140;5.428;2023-06-26T01:48:12;101217.22;;;22.09;67.65
72116;BME280;59991;52.140;5.428;2023-06-26T01:48:50;101219.66;;;22.07;67.95
72116;BME280;59991;52.140;5.428;2023-06-26T01:49:46;101217.66;;;22.07;67.35
72116;BME280;59991;52.140;5.428;2023-06-26T01:50:24;101214.09;;;22.07;67.10
72116;BME280;59991;52.140;5.428;2023-06-26T01:50:59;101221.22;;;22.08;66.55
72116;BME280;59991;52.140;5.428;2023-06-26T01:51:35;101221.22;;;22.08;66.87
72116;BME280;59991;52.140;5.428;2023-06-26T01:53:15;101225.88;;;22.11;67.02
72116;BME280;59991;52.140;5.428;2023-06-26T01:53:53;101217.22;;;22.09;66.77
72116;BME280;59991;52.140;5.428;2023-06-26T01:54:26;101214.09;;;22.07;66.77
72116;BME280;59991;52.140;5.428;2023-06-26T01:55:14;101221.22;;;22.08;66.99
72116;BME280;59991;52.140;5.428;2023-06-26T01:55:54;101214.88;;;22.07;67.37
72116;BME280;59991;52.140;5.428;2023-06-26T01:56:28;101215.34;;;22.05;66.93
72116;BME280;59991;52.140;5.428;2023-06-26T01:57:00;101215.00;;;22.03;67.01
72116;BME280;59991;52.140;5.428;2023-06-26T01:57:32;101212.22;;;22.03;66.72
72116;BME280;59991;52.140;5.428;2023-06-26T01:58:06;101209.44;;;22.03;66.55
72116;BME280;59991;52.140;5.428;2023-06-26T01:58:41;101207.56;;;22.00;66.22
72116;BME280;59991;52.140;5.428;2023-06-26T01:59:14;101210.34;;;22.00;66.22
72116;BME280;59991;52.140;5.428;2023-06-26T01:59:46;101217.88;;;22.00;65.99
72116;BME280;59991;52.140;5.428;2023-06-26T02:00:19;101209.97;;;21.98;66.05
72116;BME280;59991;52.140;5.428;2023-06-26T02:00:53;101212.75;;;21.98;66.33
72116;BME280;59991;52.140;5.428;2023-06-26T02:01:24;101204.00;;;22.00;66.50
72116;BME280;59991;52.140;5.428;2023-06-26T02:01:56;101209.97;;;21.98;66.12
72116;BME280;59991;52.140;5.428;2023-06-26T02:02:30;101205.63;;;21.97;66.27
72116;BME280;59991;52.140;5.428;2023-06-26T02:03:02;101216.31;;;21.99;65.82
72116;BME280;59991;52.140;5.428;2023-06-26T02:03:34;101222.22;;;22.01;66.44
72116;BME280;59991;52.140;5.428;2023-06-26T02:04:06;101210.34;;;22.00;66.13
72116;BME280;59991;52.140;5.428;2023-06-26T02:04:37;101213.88;;;22.01;66.23
72116;BME280;59991;52.140;5.428;2023-06-26T02:05:09;101210.34;;;22.00;66.22
72116;BME280;59991;52.140;5.428;2023-06-26T02:05:40;101209.13;;;22.01;66.10
72116;BME280;59991;52.140;5.428;2023-06-26T02:06:13;101212.75;;;21.98;66.08
72116;BME280;59991;52.140;5.428;2023-06-26T02:06:45;101211.97;;;21.98;66.03
72116;BME280;59991;52.140;5.428;2023-06-26T02:07:16;101210.56;;;21.93;66.08
72116;BME280;59991;52.140;5.428;2023-06-26T02:07:48;101201.88;;;21.91;65.91
72116;BME280;59991;52.140;5.428;2023-06-26T02:08:20;101213.44;;;21.90;65.88
72116;BME280;59991;52.140;5.428;2023-06-26T02:08:51;101208.34;;;21.88;66.07
72116;BME280;59991;52.140;5.428;2023-06-26T02:09:22;101206.78;;;21.87;65.95
72116;BME280;59991;52.140;5.428;2023-06-26T02:09:54;101208.34;;;21.88;66.16
72116;BME280;59991;52.140;5.428;2023-06-26T02:10:26;101213.09;;;21.88;65.94
72116;BME280;59991;52.140;5.428;2023-06-26T02:10:57;101208.34;;;21.88;65.31
72116;BME280;59991;52.140;5.428;2023-06-26T02:11:29;101216.22;;;21.90;65.97
72116;BME280;59991;52.140;5.428;2023-06-26T02:12:00;101202.78;;;21.88;66.02
72116;BME280;59991;52.140;5.428;2023-06-26T02:12:32;101207.56;;;21.88;66.33
72116;BME280;59991;52.140;5.428;2023-06-26T02:13:04;101212.34;;;21.87;66.00
72116;BME280;59991;52.140;5.428;2023-06-26T02:13:35;101211.56;;;21.87;65.85
72116;BME280;59991;52.140;5.428;2023-06-26T02:14:06;101210.78;;;21.86;66.23
72116;BME280;59991;52.140;5.428;2023-06-26T02:14:40;101212.00;;;21.85;66.20
72116;BME280;59991;52.140;5.428;2023-06-26T02:15:11;101212.00;;;21.85;66.16
72116;BME280;59991;52.140;5.428;2023-06-26T02:15:43;101214.66;;;21.89;65.81
72116;BME280;59991;52.140;5.428;2023-06-26T02:16:14;101211.88;;;21.89;65.97
72116;BME280;59991;52.140;5.428;2023-06-26T02:16:46;101213.44;;;21.90;66.29
72116;BME280;59991;52.140;5.428;2023-06-26T02:17:17;101213.00;;;21.91;65.81
72116;BME280;59991;52.140;5.428;2023-06-26T02:17:49;101216.22;;;21.90;66.09
72116;BME280;59991;52.140;5.428;2023-06-26T02:18:20;101218.22;;;21.89;66.11
72116;BME280;59991;52.140;5.428;2023-06-26T02:18:55;101214.22;;;21.90;66.14
72116;BME280;59991;52.140;5.428;2023-06-26T02:19:28;101213.44;;;21.90;66.35
72116;BME280;59991;52.140;5.428;2023-06-26T02:20:00;101208.34;;;21.88;66.31
72116;BME280;59991;52.140;5.428;2023-06-26T02:20:31;101211.09;;;21.88;66.54
72116;BME280;59991;52.140;5.428;2023-06-26T02:21:05;101210.34;;;21.88;66.22
72116;BME280;59991;52.140;5.428;2023-06-26T02:21:37;101216.66;;;21.88;66.46
72116;BME280;59991;52.140;5.428;2023-06-26T02:22:09;101213.56;;;21.86;67.01
72116;BME280;59991;52.140;5.428;2023-06-26T02:22:41;101224.31;;;21.84;67.34
72116;BME280;59991;52.140;5.428;2023-06-26T02:23:13;101222.78;;;21.83;67.13
72116;BME280;59991;52.140;5.428;2023-06-26T02:23:45;101220.44;;;21.82;67.30
72116;BME280;59991;52.140;5.428;2023-06-26T02:24:16;101225.97;;;21.82;66.86
72116;BME280;59991;52.140;5.428;2023-06-26T02:24:48;101224.00;;;21.82;66.95
72116;BME280;59991;52.140;5.428;2023-06-26T02:25:20;101221.66;;;21.81;67.44
72116;BME280;59991;52.140;5.428;2023-06-26T02:25:51;101216.09;;;21.81;66.88
72116;BME280;59991;52.140;5.428;2023-06-26T02:26:22;101222.88;;;21.80;67.42
72116;BME280;59991;52.140;5.428;2023-06-26T02:26:54;101220.53;;;21.78;67.11
72116;BME280;59991;52.140;5.428;2023-06-26T02:27:25;101229.66;;;21.79;67.04
72116;BME280;59991;52.140;5.428;2023-06-26T02:27:57;101216.22;;;21.77;67.35
72116;BME280;59991;52.140;5.428;2023-06-26T02:28:28;101222.53;;;21.78;67.52
72116;BME280;59991;52.140;5.428;2023-06-26T02:29:02;101210.31;;;21.75;67.58
72116;BME280;59991;52.140;5.428;2023-06-26T02:29:33;101221.56;;;21.71;68.20
72116;BME280;59991;52.140;5.428;2023-06-26T02:30:05;101218.44;;;21.69;68.10
72116;BME280;59991;52.140;5.428;2023-06-26T02:30:37;101216.44;;;21.70;67.44
72116;BME280;59991;52.140;5.428;2023-06-26T02:31:09;101210.13;;;21.69;67.21
72116;BME280;59991;52.140;5.428;2023-06-26T02:31:40;101214.91;;;21.69;67.84
72116;BME280;59991;52.140;5.428;2023-06-26T02:32:12;101222.44;;;21.68;68.08
72116;BME280;59991;52.140;5.428;2023-06-26T02:32:44;101216.13;;;21.68;67.61
72116;BME280;59991;52.140;5.428;2023-06-26T02:33:16;101216.91;;;21.68;67.83
72116;BME280;59991;52.140;5.428;2023-06-26T02:33:48;101221.66;;;21.68;67.69
72116;BME280;59991;52.140;5.428;2023-06-26T02:34:20;101216.13;;;21.68;67.74
72116;BME280;59991;52.140;5.428;2023-06-26T02:34:52;101219.22;;;21.70;67.86
72116;BME280;59991;52.140;5.428;2023-06-26T02:35:23;101219.66;;;21.68;68.17
72116;BME280;59991;52.140;5.428;2023-06-26T02:35:55;101223.22;;;21.69;67.69
72116;BME280;59991;52.140;5.428;2023-06-26T02:36:26;101225.22;;;21.68;68.15
72116;BME280;59991;52.140;5.428;2023-06-26T02:36:58;101220.13;;;21.67;67.85
72116;BME280;59991;52.140;5.428;2023-06-26T02:37:29;101220.13;;;21.67;67.93
72116;BME280;59991;52.140;5.428;2023-06-26T02:38:01;101222.88;;;21.67;67.73
72116;BME280;59991;52.140;5.428;2023-06-26T02:38:32;101216.13;;;21.68;67.45
72116;BME280;59991;52.140;5.428;2023-06-26T02:39:04;101220.13;;;21.67;67.63
72116;BME280;59991;52.140;5.428;2023-06-26T02:39:35;101227.66;;;21.66;68.21
72116;BME280;59991;52.140;5.428;2023-06-26T02:40:07;101217.78;;;21.65;68.10
72116;BME280;59991;52.140;5.428;2023-06-26T02:40:40;101225.31;;;21.65;67.60
72116;BME280;59991;52.140;5.428;2023-06-26T02:41:12;101226.56;;;21.64;68.00
72116;BME280;59991;52.140;5.428;2023-06-26T02:41:43;101230.53;;;21.63;67.56
72116;BME280;59991;52.140;5.428;2023-06-26T02:42:15;101227.31;;;21.64;67.99
72116;BME280;59991;52.140;5.428;2023-06-26T02:42:46;101236.00;;;21.66;68.02
72116;BME280;59991;52.140;5.428;2023-06-26T02:43:18;101233.66;;;21.65;67.90
72116;BME280;59991;52.140;5.428;2023-06-26T02:43:50;101227.75;;;21.63;68.07
72116;BME280;59991;52.140;5.428;2023-06-26T02:44:21;101238.88;;;21.63;67.79
72116;BME280;59991;52.140;5.428;2023-06-26T02:44:53;101224.22;;;21.62;68.32
72116;BME280;59991;52.140;5.428;2023-06-26T02:45:24;101224.66;;;21.61;68.43
72116;BME280;59991;52.140;5.428;2023-06-26T02:45:56;101220.44;;;21.56;68.85
72116;BME280;59991;52.140;5.428;2023-06-26T02:46:27;101226.44;;;21.55;68.37
72116;BME280;59991;52.140;5.428;2023-06-26T02:46:59;101232.44;;;21.53;68.53
72116;BME280;59991;52.140;5.428;2023-06-26T02:47:30;101226.88;;;21.53;68.45
72116;BME280;59991;52.140;5.428;2023-06-26T02:48:02;101225.34;;;21.52;68.54
72116;BME280;59991;52.140;5.428;2023-06-26T02:48:34;101224.56;;;21.52;68.83
72116;BME280;59991;52.140;5.428;2023-06-26T02:49:05;101222.22;;;21.50;68.45
72116;BME280;59991;52.140;5.428;2023-06-26T02:49:37;101229.00;;;21.49;69.00
72116;BME280;59991;52.140;5.428;2023-06-26T02:50:09;101222.66;;;21.49;68.39
72116;BME280;59991;52.140;5.428;2023-06-26T02:50:40;101228.56;;;21.51;68.24
72116;BME280;59991;52.140;5.428;2023-06-26T02:51:12;101228.56;;;21.51;68.76
72116;BME280;59991;52.140;5.428;2023-06-26T02:51:43;101224.22;;;21.50;69.23
72116;BME280;59991;52.140;5.428;2023-06-26T02:52:15;101227.88;;;21.47;68.70
72116;BME280;59991;52.140;5.428;2023-06-26T02:52:46;101230.31;;;21.45;69.20
72116;BME280;59991;52.140;5.428;2023-06-26T02:53:22;101227.19;;;21.43;69.28
72116;BME280;59991;52.140;5.428;2023-06-26T02:53:53;101240.72;;;21.41;69.40
72116;BME280;59991;52.140;5.428;2023-06-26T02:54:24;101232.06;;;21.38;69.94